createdAt,value
2022-08-11T00:01:22.610Z,100.00
2022-08-11T00:03:57.233Z,100.00
2022-08-11T00:06:37.819Z,100.00
2022-08-11T00:09:16.628Z,100.00
2022-08-11T00:11:48.280Z,100.00
2022-08-11T00:14:21.008Z,100.00
2022-08-11T00:16:58.678Z,100.00
2022-08-11T00:20:12.373Z,100.00
2022-08-11T00:22:23.771Z,100.00
2022-08-11T00:24:53.903Z,100.00
2022-08-11T00:27:34.751Z,100.00
2022-08-11T00:30:02.131Z,100.00
2022-08-11T00:32:31.067Z,100.00
2022-08-11T00:35:56.094Z,100.00
2022-08-11T00:37:50.830Z,100.00
2022-08-11T00:40:29.712Z,100.00
2022-08-11T00:43:20.897Z,100.00
2022-08-11T00:46:19.909Z,100.00
2022-08-11T00:49:02.357Z,100.00
2022-08-11T00:52:06.326Z,100.00
2022-08-11T00:55:04.027Z,100.00
2022-08-11T00:57:52.774Z,100.00
2022-08-11T01:00:23.545Z,100.00
2022-08-11T01:03:20.791Z,100.00
2022-08-11T01:06:03.894Z,100.00
2022-08-11T01:08:54.101Z,100.00
2022-08-11T01:11:32.708Z,100.00
2022-08-11T01:14:06.348Z,100.00
2022-08-11T01:17:12.301Z,100.00
2022-08-11T01:20:44.827Z,100.00
2022-08-11T01:23:07.823Z,100.00
2022-08-11T01:26:16.445Z,100.00
2022-08-11T01:29:12.948Z,100.00
2022-08-11T01:32:01.693Z,100.00
2022-08-11T01:34:43.232Z,100.00
2022-08-11T01:37:48.204Z,100.00
2022-08-11T01:40:30.596Z,100.00
2022-08-11T01:43:53.810Z,100.00
2022-08-11T01:46:40.688Z,100.00
2022-08-11T01:50:05.200Z,100.00
2022-08-11T01:52:44.957Z,100.00
2022-08-11T01:55:27.247Z,100.00
2022-08-11T01:58:07.059Z,100.00
2022-08-11T02:00:51.189Z,100.00
2022-08-11T02:03:30.157Z,100.00
2022-08-11T02:06:26.411Z,100.00
2022-08-11T02:09:13.429Z,100.00
2022-08-11T02:11:47.636Z,100.00
2022-08-11T02:14:40.585Z,100.00
2022-08-11T02:17:54.957Z,100.00
2022-08-11T02:20:45.532Z,100.00
2022-08-11T02:24:05.881Z,100.00
2022-08-11T02:26:39.830Z,100.00
2022-08-11T02:29:13.786Z,100.00
2022-08-11T02:32:24.114Z,100.00
2022-08-11T02:35:02.718Z,100.00
2022-08-11T02:37:45.302Z,100.00
2022-08-11T02:40:41.776Z,100.00
2022-08-11T02:43:20.286Z,100.00
2022-08-11T02:46:18.432Z,100.00
2022-08-11T02:49:31.006Z,100.00
2022-08-11T02:52:25.336Z,100.00
2022-08-11T02:55:56.709Z,100.00
2022-08-11T02:58:32.861Z,100.00
2022-08-11T03:01:19.452Z,100.00
2022-08-11T03:03:59.350Z,100.00
2022-08-11T03:06:45.295Z,100.00
2022-08-11T03:09:25.312Z,100.00
2022-08-11T03:12:36.000Z,100.00
2022-08-11T03:15:30.526Z,100.00
2022-08-11T03:18:06.382Z,100.00
2022-08-11T03:20:43.695Z,100.00
2022-08-11T03:23:34.864Z,100.00
2022-08-11T03:26:15.953Z,100.00
2022-08-11T03:28:53.724Z,100.00
2022-08-11T03:31:39.854Z,100.00
2022-08-11T03:34:17.756Z,100.00
2022-08-11T03:37:35.285Z,100.00
2022-08-11T03:40:08.296Z,100.00
2022-08-11T03:42:44.254Z,100.00
2022-08-11T03:45:41.123Z,100.00
2022-08-11T03:48:26.138Z,100.00
2022-08-11T03:50:55.981Z,100.00
2022-08-11T03:53:56.779Z,100.00
2022-08-11T03:57:07.391Z,100.00
2022-08-11T04:00:11.379Z,100.00
2022-08-11T04:03:08.394Z,100.00
2022-08-11T04:06:13.465Z,100.00
2022-08-11T04:08:43.084Z,100.00
2022-08-11T04:11:34.308Z,100.00
2022-08-11T04:14:38.056Z,100.00
2022-08-11T04:17:42.932Z,100.00
2022-08-11T04:20:52.135Z,100.00
2022-08-11T04:24:38.500Z,100.00
2022-08-11T04:27:39.117Z,100.00
2022-08-11T04:30:17.745Z,100.00
2022-08-11T04:33:34.251Z,100.00
2022-08-11T04:36:54.382Z,100.00
2022-08-11T04:39:43.667Z,100.00
2022-08-11T04:43:07.087Z,100.00
2022-08-11T04:45:52.544Z,100.00
2022-08-11T05:03:48.858Z,100.00
2022-08-11T05:06:53.610Z,100.00
2022-08-11T05:09:39.221Z,100.00
2022-08-11T05:12:31.453Z,100.00
2022-08-11T05:15:18.464Z,100.00
2022-08-11T05:18:42.071Z,100.00
2022-08-11T05:21:44.476Z,100.00
2022-08-11T05:24:38.917Z,100.00
2022-08-11T05:27:28.280Z,100.00
2022-08-11T05:30:34.330Z,100.00
2022-08-11T05:33:26.903Z,100.00
2022-08-11T05:36:17.817Z,100.00
2022-08-11T05:39:14.893Z,100.00
2022-08-11T05:42:01.021Z,100.00
2022-08-11T05:44:47.120Z,100.00
2022-08-11T05:47:42.613Z,100.00
2022-08-11T05:50:33.039Z,100.00
2022-08-11T05:53:20.057Z,100.00
2022-08-11T05:56:08.132Z,100.00
2022-08-11T05:58:43.747Z,100.00
2022-08-11T06:01:13.249Z,100.00
2022-08-11T06:04:03.280Z,100.00
2022-08-11T06:06:30.931Z,100.00
2022-08-11T06:08:59.684Z,100.00
2022-08-11T06:11:44.265Z,100.00
2022-08-11T06:14:15.866Z,100.00
2022-08-11T06:16:43.547Z,100.00
2022-08-11T06:19:10.772Z,100.00
2022-08-11T06:21:40.469Z,100.00
2022-08-11T06:24:15.394Z,100.00
2022-08-11T06:27:11.224Z,100.00
2022-08-11T06:29:47.603Z,100.00
2022-08-11T06:32:15.985Z,100.00
2022-08-11T06:35:02.227Z,100.00
2022-08-11T06:38:03.276Z,100.00
2022-08-11T06:40:36.029Z,100.00
2022-08-11T06:43:19.809Z,100.00
2022-08-11T06:46:04.388Z,100.00
2022-08-11T06:48:33.707Z,100.00
2022-08-11T06:51:12.634Z,100.00
2022-08-11T06:54:04.682Z,100.00
2022-08-11T06:57:29.412Z,100.00
2022-08-11T07:00:04.579Z,100.00
2022-08-11T07:02:34.581Z,100.00
2022-08-11T07:05:08.206Z,100.00
2022-08-11T07:08:35.216Z,100.00
2022-08-11T07:11:57.207Z,100.00
2022-08-11T07:14:45.983Z,100.00
2022-08-11T07:17:18.307Z,100.00
2022-08-11T07:20:10.323Z,100.00
2022-08-11T07:23:10.284Z,100.00
2022-08-11T07:26:00.094Z,100.00
2022-08-11T07:28:48.441Z,100.00
2022-08-11T07:31:24.701Z,100.00
2022-08-11T07:34:06.982Z,100.00
2022-08-11T07:36:46.012Z,100.00
2022-08-11T07:39:21.199Z,100.00
2022-08-11T07:41:49.460Z,100.00
2022-08-11T07:44:17.171Z,100.00
2022-08-11T07:47:04.800Z,100.00
2022-08-11T07:49:54.272Z,100.00
2022-08-11T07:52:32.526Z,100.00
2022-08-11T07:55:51.255Z,100.00
2022-08-11T07:58:44.998Z,100.00
2022-08-11T08:01:41.747Z,100.00
2022-08-11T08:04:32.340Z,100.00
2022-08-11T08:07:19.745Z,100.00
2022-08-11T08:10:07.017Z,100.00
2022-08-11T08:12:55.983Z,100.00
2022-08-11T08:15:42.146Z,100.00
2022-08-11T08:18:25.982Z,100.00
2022-08-11T08:20:59.132Z,100.00
2022-08-11T08:23:34.270Z,100.00
2022-08-11T08:26:04.626Z,100.00
2022-08-11T08:28:33.921Z,100.00
2022-08-11T08:31:00.944Z,100.00
2022-08-11T08:33:32.491Z,100.00
2022-08-11T08:36:12.678Z,100.00
2022-08-11T08:38:50.151Z,100.00
2022-08-11T08:41:29.249Z,100.00
2022-08-11T08:44:21.047Z,100.00
2022-08-11T08:46:56.619Z,100.00
2022-08-11T08:49:25.532Z,100.00
2022-08-11T08:52:01.607Z,100.00
2022-08-11T08:54:45.541Z,100.00
2022-08-11T08:57:14.192Z,100.00
2022-08-11T08:59:48.756Z,100.00
2022-08-11T09:02:34.180Z,100.00
2022-08-11T09:05:03.762Z,100.00
2022-08-11T09:07:39.409Z,100.00
2022-08-11T09:10:09.176Z,100.00
2022-08-11T09:12:40.519Z,100.00
2022-08-11T09:15:09.249Z,100.00
2022-08-11T09:17:39.762Z,100.00
2022-08-11T09:20:17.282Z,100.00
2022-08-11T09:26:19.759Z,100.00
2022-08-11T09:28:49.741Z,100.00
2022-08-11T09:31:16.828Z,100.00
2022-08-11T09:33:45.968Z,100.00
2022-08-11T09:36:32.361Z,100.00
2022-08-11T09:39:19.223Z,100.00
2022-08-11T09:42:00.393Z,100.00
2022-08-11T09:44:48.954Z,100.00
2022-08-11T09:47:32.281Z,100.00
2022-08-11T09:50:01.578Z,100.00
2022-08-11T09:52:48.087Z,100.00
2022-08-11T09:55:25.304Z,100.00
2022-08-11T09:58:11.927Z,100.00
2022-08-11T10:01:02.239Z,100.00
2022-08-11T10:03:31.584Z,100.00
2022-08-11T10:06:34.092Z,100.00
2022-08-11T10:09:06.274Z,100.00
2022-08-11T10:11:36.369Z,100.00
2022-08-11T10:14:32.910Z,100.00
2022-08-11T10:17:06.982Z,100.00
2022-08-11T10:19:36.533Z,100.00
2022-08-11T10:22:23.951Z,100.00
2022-08-11T10:25:14.492Z,100.00
2022-08-11T10:28:18.736Z,100.00
2022-08-11T10:30:52.414Z,100.00
2022-08-11T10:33:41.773Z,100.00
2022-08-11T10:36:19.377Z,100.00
2022-08-11T10:38:50.377Z,100.00
2022-08-11T10:41:36.644Z,100.00
2022-08-11T10:44:23.714Z,100.00
2022-08-11T10:47:10.502Z,100.00
2022-08-11T10:49:37.705Z,100.00
2022-08-11T10:52:23.476Z,100.00
2022-08-11T10:55:10.013Z,100.00
2022-08-11T10:58:04.987Z,100.00
2022-08-11T11:00:33.380Z,100.00
2022-08-11T11:03:05.422Z,100.00
2022-08-11T11:06:28.790Z,100.00
2022-08-11T11:08:54.068Z,100.00
2022-08-11T11:11:45.112Z,100.00
2022-08-11T11:14:46.105Z,100.00
2022-08-11T11:17:50.808Z,100.00
2022-08-11T11:20:36.467Z,100.00
2022-08-11T11:23:20.548Z,100.00
2022-08-11T11:26:14.794Z,100.00
2022-08-11T11:29:19.060Z,100.00
2022-08-11T11:32:09.512Z,100.00
2022-08-11T11:34:59.326Z,100.00
2022-08-11T11:37:26.952Z,100.00
2022-08-11T11:39:55.416Z,100.00
2022-08-11T11:42:22.975Z,100.00
2022-08-11T11:44:55.758Z,100.00
2022-08-11T11:47:23.777Z,100.00
2022-08-11T11:49:50.896Z,100.00
2022-08-11T11:52:20.561Z,100.00
2022-08-11T11:54:50.536Z,100.00
2022-08-11T11:57:38.035Z,100.00
2022-08-11T12:00:33.598Z,100.00
2022-08-11T12:03:02.916Z,100.00
2022-08-11T12:05:33.740Z,100.00
2022-08-11T12:08:18.209Z,100.00
2022-08-11T12:11:14.258Z,100.00
2022-08-11T12:13:43.417Z,100.00
2022-08-11T12:16:35.390Z,100.00
2022-08-11T12:19:00.833Z,100.00
2022-08-11T12:21:31.354Z,100.00
2022-08-11T12:24:19.755Z,100.00
2022-08-11T12:27:14.691Z,100.00
2022-08-11T12:29:39.907Z,100.00
2022-08-11T12:32:09.077Z,100.00
2022-08-11T12:34:39.278Z,100.00
2022-08-11T12:37:13.264Z,100.00
2022-08-11T12:40:43.446Z,99.09
2022-08-11T12:43:43.765Z,100.00
2022-08-11T12:46:15.037Z,100.00
2022-08-11T12:49:05.777Z,98.36
2022-08-11T12:52:11.112Z,99.98
2022-08-11T12:54:49.764Z,99.21
2022-08-11T12:57:39.144Z,97.84
2022-08-11T13:00:26.007Z,99.03
2022-08-11T13:03:13.590Z,97.00
2022-08-11T13:05:46.477Z,95.69
2022-08-11T13:08:17.749Z,96.31
2022-08-11T13:11:06.679Z,95.47
2022-08-11T13:13:55.270Z,93.53
2022-08-11T13:16:23.245Z,93.95
2022-08-11T13:18:50.969Z,93.41
2022-08-11T13:21:21.892Z,93.39
2022-08-11T13:24:00.686Z,91.67
2022-08-11T13:26:47.633Z,89.21
2022-08-11T13:29:22.687Z,91.07
2022-08-11T13:31:50.579Z,90.60
2022-08-11T13:34:18.400Z,90.18
2022-08-11T13:36:52.618Z,89.56
2022-08-11T13:39:23.964Z,89.73
2022-08-11T13:41:53.554Z,88.95
2022-08-11T13:44:25.574Z,89.24
2022-08-11T13:46:57.838Z,89.45
2022-08-11T13:49:25.880Z,90.39
2022-08-11T13:51:54.341Z,90.08
2022-08-11T13:54:42.505Z,88.58
2022-08-11T13:58:07.242Z,88.99
2022-08-11T14:00:23.446Z,89.14
2022-08-11T14:02:56.673Z,89.98
2022-08-11T14:05:31.865Z,89.93
2022-08-11T14:08:37.792Z,87.97
2022-08-11T14:12:21.883Z,90.29
2022-08-11T14:14:28.073Z,89.10
2022-08-11T14:16:57.396Z,88.79
2022-08-11T14:19:26.731Z,87.22
2022-08-11T14:22:08.109Z,86.54
2022-08-11T14:24:38.977Z,83.72
2022-08-11T14:28:25.688Z,83.43
2022-08-11T14:29:59.081Z,83.91
2022-08-11T14:32:27.720Z,83.36
2022-08-11T14:34:55.255Z,81.63
2022-08-11T14:37:24.159Z,82.98
2022-08-11T14:40:02.259Z,82.39
2022-08-11T14:42:48.821Z,82.43
2022-08-11T14:45:57.503Z,80.76
2022-08-11T14:48:23.637Z,81.62
2022-08-11T14:50:50.564Z,81.30
2022-08-11T14:53:18.930Z,80.33
2022-08-11T14:56:05.482Z,80.06
2022-08-11T14:58:34.041Z,79.93
2022-08-11T15:01:02.682Z,79.04
2022-08-11T15:03:33.835Z,78.47
2022-08-11T15:06:02.469Z,79.16
2022-08-11T15:08:51.556Z,80.50
2022-08-11T15:11:39.211Z,79.45
2022-08-11T15:14:11.263Z,78.87
2022-08-11T15:17:02.484Z,79.57
2022-08-11T15:19:36.686Z,81.06
2022-08-11T15:22:37.407Z,79.93
2022-08-11T15:25:04.320Z,81.90
2022-08-11T15:27:52.947Z,81.61
2022-08-11T15:30:38.316Z,82.71
2022-08-11T15:33:27.064Z,81.32
2022-08-11T15:36:13.880Z,82.19
2022-08-11T15:38:55.790Z,79.10
2022-08-11T15:41:56.470Z,78.00
2022-08-11T15:45:02.000Z,79.30
2022-08-11T15:47:37.611Z,79.02
2022-08-11T15:50:11.301Z,79.21
2022-08-11T15:52:47.873Z,77.47
2022-08-11T15:55:16.932Z,77.51
2022-08-11T15:58:07.763Z,77.82
2022-08-11T16:01:04.370Z,78.92
2022-08-11T16:04:17.110Z,79.89
2022-08-11T16:06:52.880Z,79.84
2022-08-11T16:09:41.363Z,79.45
2022-08-11T16:12:19.356Z,79.18
2022-08-11T16:15:09.293Z,79.67
2022-08-11T16:17:44.505Z,79.14
2022-08-11T16:20:14.292Z,79.08
2022-08-11T16:23:01.428Z,78.08
2022-08-11T16:27:03.405Z,78.69
2022-08-11T16:28:20.960Z,79.29
2022-08-11T16:30:49.514Z,78.58
2022-08-11T16:33:48.866Z,79.76
2022-08-11T16:36:25.041Z,79.80
2022-08-11T16:38:53.936Z,78.50
2022-08-11T16:41:43.104Z,78.62
2022-08-11T16:44:37.656Z,79.75
2022-08-11T16:48:03.414Z,78.79
2022-08-11T16:50:09.385Z,80.13
2022-08-11T16:52:36.818Z,80.79
2022-08-11T16:55:05.320Z,81.95
2022-08-11T16:57:52.859Z,81.02
2022-08-11T17:00:19.576Z,80.08
2022-08-11T17:03:11.635Z,80.29
2022-08-11T17:06:03.364Z,80.81
2022-08-11T17:08:56.917Z,80.66
2022-08-11T17:11:46.501Z,81.48
2022-08-11T17:14:17.754Z,80.90
2022-08-11T17:17:05.842Z,81.13
2022-08-11T17:20:39.863Z,82.28
2022-08-11T17:22:40.152Z,82.30
2022-08-11T17:25:10.161Z,84.05
2022-08-11T17:27:39.094Z,83.72
2022-08-11T17:30:08.060Z,84.53
2022-08-11T17:33:00.722Z,82.47
2022-08-11T17:35:36.169Z,81.15
2022-08-11T17:38:07.046Z,79.93
2022-08-11T17:40:38.989Z,79.83
2022-08-11T17:43:28.535Z,80.93
2022-08-11T17:46:15.895Z,81.05
2022-08-11T17:48:47.899Z,82.24
2022-08-11T17:51:38.887Z,82.37
2022-08-11T17:54:28.480Z,83.34
2022-08-11T17:57:20.311Z,83.07
2022-08-11T17:59:52.945Z,83.26
2022-08-11T18:02:42.244Z,83.98
2022-08-11T18:05:13.462Z,86.55
2022-08-11T18:08:01.999Z,86.77
2022-08-11T18:10:49.832Z,86.80
2022-08-11T18:13:39.030Z,86.62
2022-08-11T18:16:24.835Z,89.28
2022-08-11T18:19:10.834Z,92.91
2022-08-11T18:22:00.685Z,93.66
2022-08-11T18:25:06.937Z,94.58
2022-08-11T18:27:54.756Z,93.72
2022-08-11T18:30:41.442Z,95.03
2022-08-11T18:36:39.861Z,99.53
2022-08-11T18:39:32.118Z,100.00
2022-08-11T18:42:29.538Z,100.00
2022-08-11T18:45:21.607Z,100.00
2022-08-11T18:48:11.665Z,100.00
2022-08-11T18:51:29.665Z,100.00
2022-08-11T18:54:10.552Z,100.00
2022-08-11T18:56:56.844Z,100.00
2022-08-11T18:59:45.643Z,100.00
2022-08-11T19:02:33.546Z,100.00
2022-08-11T19:06:32.205Z,100.00
2022-08-11T19:08:46.337Z,100.00
2022-08-11T19:11:32.621Z,100.00
2022-08-11T19:14:22.751Z,100.00
2022-08-11T19:17:09.697Z,100.00
2022-08-11T19:19:58.251Z,100.00
2022-08-11T19:22:45.441Z,100.00
2022-08-11T19:25:32.316Z,100.00
2022-08-11T19:28:19.112Z,100.00
2022-08-11T19:31:05.714Z,100.00
2022-08-11T19:34:00.356Z,100.00
2022-08-11T19:36:56.603Z,100.00
2022-08-11T19:39:44.041Z,100.00
2022-08-11T19:42:31.261Z,100.00
2022-08-11T19:45:19.067Z,100.00
2022-08-11T19:48:30.566Z,100.00
2022-08-11T19:51:14.463Z,100.00
2022-08-11T19:54:05.624Z,100.00
2022-08-11T19:56:55.260Z,100.00
2022-08-11T19:59:41.049Z,100.00
2022-08-11T20:02:26.303Z,100.00
2022-08-11T20:05:11.331Z,100.00
2022-08-11T20:07:57.115Z,100.00
2022-08-11T20:10:45.392Z,100.00
2022-08-11T20:13:34.690Z,100.00
2022-08-11T20:16:20.749Z,100.00
2022-08-11T20:19:08.720Z,100.00
2022-08-11T20:21:55.876Z,100.00
2022-08-11T20:24:42.146Z,100.00
2022-08-11T20:27:28.477Z,100.00
2022-08-11T20:30:17.774Z,100.00
2022-08-11T20:33:03.890Z,100.00
2022-08-11T20:35:51.518Z,100.00
2022-08-11T20:38:40.299Z,100.00
2022-08-11T20:41:28.232Z,100.00
2022-08-11T20:44:16.053Z,100.00
2022-08-11T20:47:02.133Z,100.00
2022-08-11T20:49:55.115Z,100.00
2022-08-11T20:52:48.061Z,100.00
2022-08-11T20:55:51.550Z,100.00
2022-08-11T20:59:13.431Z,100.00
2022-08-11T21:04:54.316Z,100.00
2022-08-11T21:07:42.077Z,100.00
2022-08-11T21:10:30.175Z,100.00
2022-08-11T21:13:26.059Z,100.00
2022-08-11T21:16:25.775Z,100.00
2022-08-11T21:20:00.331Z,100.00
2022-08-11T21:22:58.596Z,100.00
2022-08-11T21:25:49.953Z,100.00
2022-08-11T21:28:38.594Z,100.00
2022-08-11T21:31:28.981Z,100.00
2022-08-11T21:34:15.896Z,100.00
2022-08-11T21:37:03.474Z,100.00
2022-08-11T21:39:49.270Z,100.00
2022-08-11T21:42:37.628Z,100.00
2022-08-11T21:45:25.757Z,100.00
2022-08-11T21:48:12.489Z,100.00
2022-08-11T21:50:58.234Z,100.00
2022-08-11T21:53:45.431Z,100.00
2022-08-11T21:56:33.405Z,100.00
2022-08-11T21:59:20.172Z,100.00
2022-08-11T22:02:12.342Z,100.00
2022-08-11T22:04:59.452Z,100.00
2022-08-11T22:07:44.634Z,100.00
2022-08-11T22:10:41.465Z,100.00
2022-08-11T22:13:30.714Z,100.00
2022-08-11T22:16:20.198Z,100.00
2022-08-11T22:19:08.921Z,100.00
2022-08-11T22:22:04.201Z,100.00
2022-08-11T22:24:54.874Z,100.00
2022-08-11T22:27:43.485Z,100.00
2022-08-11T22:30:29.664Z,100.00
2022-08-11T22:33:24.450Z,100.00
2022-08-11T22:36:13.327Z,100.00
2022-08-11T22:39:01.480Z,100.00
2022-08-11T22:41:47.315Z,100.00
2022-08-11T22:44:32.493Z,100.00
2022-08-11T22:47:19.563Z,100.00
2022-08-11T22:50:07.430Z,100.00
2022-08-11T22:52:53.665Z,100.00
2022-08-11T22:55:40.415Z,100.00
2022-08-11T22:58:33.286Z,100.00
2022-08-11T23:01:20.193Z,100.00
2022-08-11T23:04:06.254Z,100.00
2022-08-11T23:06:53.324Z,100.00
2022-08-11T23:09:39.108Z,100.00
2022-08-11T23:12:24.735Z,100.00
2022-08-11T23:15:10.616Z,100.00
2022-08-11T23:17:56.281Z,100.00
2022-08-11T23:20:47.463Z,100.00
2022-08-11T23:23:36.606Z,100.00
2022-08-11T23:26:24.713Z,100.00
2022-08-11T23:29:14.440Z,100.00
2022-08-11T23:32:00.965Z,100.00
2022-08-11T23:35:03.456Z,100.00
2022-08-11T23:37:51.266Z,100.00
2022-08-11T23:40:36.676Z,100.00
2022-08-11T23:43:22.518Z,100.00
2022-08-11T23:46:08.399Z,100.00
2022-08-11T23:48:56.329Z,100.00
2022-08-11T23:51:42.552Z,100.00
2022-08-11T23:54:32.647Z,100.00
2022-08-11T23:57:23.521Z,100.00
